Thunder radar more information blitzortung!


Radar de pluja more information rain snow radar


Visita la nostra xarxa de llocs de meteo:

Template documentation
and downloads

And another site



No particular awareness of the weather is required.    There are no Weather-warnings

Pagina Historial Weather Underground text

Diari Resum Novembre 26, 2017 Unitats:  Tant    Imperial   Mètric
« Previous Dia
SegĂźent Dia »
Diari Setmana Mensual Anual Personalitzada
  Maxima: Minima: Media:
Temperatura: 57.7 °F /  14.3 °C 38.8 °F /  3.8 °C 47.5 °F /  8.6 °C
Punt de rosada: 38.1 °F /  3.4 °C 21.4 °F /  -5.9 °C 28 °F /  -2.2 °C
Humitat: 55 % 38 % 47 %
Wind Speed: 10.4 mph /  16.7 km/h - 2.3 mph /  3.7 km/h
RĂ fegues de vent: 10.4 mph /  16.7 km/h - -
Vent:- - South
Pression baro: 30.4 in /  1030.0 hPa 30.2 in /  1022.9 hPa -
Precipitacions: 0 in /  0.0 mm    
Historical Graphs
 
 
Dades de taula per Novembre 26, 2017
Temps Temperatura Punt de rosada Pression baro Vent Wind Speed RĂ fegues de vent Humitat Rainfall Rate (Hourly)
00:01 47.1 °F /  8.4 °C 29.5 °F /  -1.4 °C 30.2 in /  1023.9 hPa WSW 2.4 mph /  3.9 km/h 2.4 mph /  3.9 km/h 50 % 0 in /  0.0 mm
00:05 41.4 °F /  5.2 °C 25 °F /  -3.9 °C 30.3 in /  1026.0 hPa Calm   2 mph /  3.2 km/h 52 % 0 in /  0.0 mm
00:06 46.9 °F /  8.3 °C 29.1 °F /  -1.6 °C 30.2 in /  1023.9 hPa SW 1.2 mph /  1.9 km/h   50 % 0 in /  0.0 mm
00:11 46.6 °F /  8.1 °C 28.9 °F /  -1.7 °C 30.2 in /  1023.9 hPa Calm     50 % 0 in /  0.0 mm
00:15 40.8 °F /  4.9 °C 24.4 °F /  -4.2 °C 30.3 in /  1026.0 hPa East 1 mph /  1.6 km/h 2 mph /  3.2 km/h 52 % 0 in /  0.0 mm
00:16 46.4 °F /  8.0 °C 28.8 °F /  -1.8 °C 30.2 in /  1022.9 hPa Calm     50 % 0 in /  0.0 mm
00:25 40.6 °F /  4.8 °C 24.4 °F /  -4.2 °C 30.3 in /  1026.0 hPa Calm   2 mph /  3.2 km/h 52 % 0 in /  0.0 mm
00:35 40.5 °F /  4.7 °C 24.6 °F /  -4.1 °C 30.3 in /  1026.0 hPa SW 1 mph /  1.6 km/h 2 mph /  3.2 km/h 53 % 0 in /  0.0 mm
00:45 40.3 °F /  4.6 °C 24.4 °F /  -4.2 °C 30.3 in /  1026.0 hPa WSW 1 mph /  1.6 km/h 2 mph /  3.2 km/h 53 % 0 in /  0.0 mm
00:55 40.3 °F /  4.6 °C 24.4 °F /  -4.2 °C 30.3 in /  1026.0 hPa West 1 mph /  1.6 km/h 2 mph /  3.2 km/h 53 % 0 in /  0.0 mm
01:05 40.1 °F /  4.5 °C 24.3 °F /  -4.3 °C 30.3 in /  1026.0 hPa West 1 mph /  1.6 km/h   53 % 0 in /  0.0 mm
01:15 39.7 °F /  4.3 °C 24.4 °F /  -4.2 °C 30.3 in /  1026.0 hPa Calm   1 mph /  1.6 km/h 54 % 0 in /  0.0 mm
01:25 39.7 °F /  4.3 °C 24.4 °F /  -4.2 °C 30.3 in /  1026.0 hPa NNE 2 mph /  3.2 km/h 3 mph /  4.8 km/h 54 % 0 in /  0.0 mm
01:35 39.9 °F /  4.4 °C 24.6 °F /  -4.1 °C 30.3 in /  1026.0 hPa NE 2 mph /  3.2 km/h 4 mph /  6.4 km/h 54 % 0 in /  0.0 mm
01:45 39.9 °F /  4.4 °C 24.6 °F /  -4.1 °C 30.3 in /  1026.0 hPa NNE 2 mph /  3.2 km/h 2 mph /  3.2 km/h 54 % 0 in /  0.0 mm
01:55 40.1 °F /  4.5 °C 24.8 °F /  -4.0 °C 30.3 in /  1026.0 hPa NNW 2 mph /  3.2 km/h 4 mph /  6.4 km/h 54 % 0 in /  0.0 mm
02:05 40.5 °F /  4.7 °C 25.2 °F /  -3.8 °C 30.3 in /  1027.0 hPa NNE 5 mph /  8.0 km/h 5 mph /  8.0 km/h 54 % 0 in /  0.0 mm
02:15 40.5 °F /  4.7 °C 25.5 °F /  -3.6 °C 30.3 in /  1027.0 hPa NE 2 mph /  3.2 km/h 5 mph /  8.0 km/h 55 % 0 in /  0.0 mm
02:25 40.5 °F /  4.7 °C 25.5 °F /  -3.6 °C 30.3 in /  1027.0 hPa North 2 mph /  3.2 km/h 3 mph /  4.8 km/h 55 % 0 in /  0.0 mm
02:35 40.5 °F /  4.7 °C 25.5 °F /  -3.6 °C 30.3 in /  1027.0 hPa NNW 2 mph /  3.2 km/h 3 mph /  4.8 km/h 55 % 0 in /  0.0 mm
02:45 40.8 °F /  4.9 °C 25.9 °F /  -3.4 °C 30.3 in /  1027.0 hPa NNE 1 mph /  1.6 km/h 3 mph /  4.8 km/h 55 % 0 in /  0.0 mm
02:55 41 °F /  5.0 °C 26.1 °F /  -3.3 °C 30.4 in /  1028.0 hPa NNE 1 mph /  1.6 km/h 2 mph /  3.2 km/h 55 % 0 in /  0.0 mm
03:05 41.4 °F /  5.2 °C 26.4 °F /  -3.1 °C 30.4 in /  1028.0 hPa North 2 mph /  3.2 km/h 2 mph /  3.2 km/h 55 % 0 in /  0.0 mm
03:15 41.7 °F /  5.4 °C 26.8 °F /  -2.9 °C 30.4 in /  1028.0 hPa North 1 mph /  1.6 km/h 3 mph /  4.8 km/h 55 % 0 in /  0.0 mm
03:25 41.9 °F /  5.5 °C 27 °F /  -2.8 °C 30.4 in /  1028.0 hPa NNE 1 mph /  1.6 km/h 4 mph /  6.4 km/h 55 % 0 in /  0.0 mm
03:35 42.6 °F /  5.9 °C 27.7 °F /  -2.4 °C 30.4 in /  1028.0 hPa Calm   3 mph /  4.8 km/h 55 % 0 in /  0.0 mm
03:45 43.2 °F /  6.2 °C 28 °F /  -2.2 °C 30.4 in /  1028.0 hPa Calm   2 mph /  3.2 km/h 55 % 0 in /  0.0 mm
03:55 44.4 °F /  6.9 °C 29.1 °F /  -1.6 °C 30.4 in /  1028.0 hPa NNW 1 mph /  1.6 km/h 2 mph /  3.2 km/h 55 % 0 in /  0.0 mm
04:05 45.3 °F /  7.4 °C 29.7 °F /  -1.3 °C 30.4 in /  1028.0 hPa North 1 mph /  1.6 km/h 2 mph /  3.2 km/h 54 % 0 in /  0.0 mm
04:15 46.8 °F /  8.2 °C 30.9 °F /  -0.6 °C 30.4 in /  1028.0 hPa NNW 1 mph /  1.6 km/h 2 mph /  3.2 km/h 54 % 0 in /  0.0 mm
04:25 46.9 °F /  8.3 °C 30.7 °F /  -0.7 °C 30.4 in /  1028.0 hPa WSW 1 mph /  1.6 km/h 3 mph /  4.8 km/h 53 % 0 in /  0.0 mm
04:35 47.3 °F /  8.5 °C 30.9 °F /  -0.6 °C 30.4 in /  1028.0 hPa SW 1 mph /  1.6 km/h 2 mph /  3.2 km/h 53 % 0 in /  0.0 mm
04:45 47.3 °F /  8.5 °C 30.6 °F /  -0.8 °C 30.4 in /  1028.0 hPa SSW 2 mph /  3.2 km/h 3 mph /  4.8 km/h 52 % 0 in /  0.0 mm
04:55 47.5 °F /  8.6 °C 30.7 °F /  -0.7 °C 30.4 in /  1029.0 hPa East 2 mph /  3.2 km/h 3 mph /  4.8 km/h 52 % 0 in /  0.0 mm
05:05 48.2 °F /  9.0 °C 31.5 °F /  -0.3 °C 30.4 in /  1029.0 hPa ENE 1 mph /  1.6 km/h 4 mph /  6.4 km/h 52 % 0 in /  0.0 mm
05:15 48.6 °F /  9.2 °C 31.6 °F /  -0.2 °C 30.4 in /  1029.0 hPa NE 1 mph /  1.6 km/h 3 mph /  4.8 km/h 52 % 0 in /  0.0 mm
05:25 48.9 °F /  9.4 °C 32 °F /  0.0 °C 30.4 in /  1030.0 hPa NE 3 mph /  4.8 km/h 3 mph /  4.8 km/h 52 % 0 in /  0.0 mm
05:35 48.6 °F /  9.2 °C 31.3 °F /  -0.4 °C 30.4 in /  1029.0 hPa NE 2 mph /  3.2 km/h 3 mph /  4.8 km/h 51 % 0 in /  0.0 mm
05:45 49.8 °F /  9.9 °C 32.4 °F /  0.2 °C 30.4 in /  1029.0 hPa ENE 1 mph /  1.6 km/h 2 mph /  3.2 km/h 51 % 0 in /  0.0 mm
11:45 49.5 °F /  9.7 °C 32.2 °F /  0.1 °C 30.4 in /  1030.0 hPa East 2.4 mph /  3.9 km/h 2.4 mph /  3.9 km/h 51 % 0 in /  0.0 mm
11:50 50.4 °F /  10.2 °C 33.4 °F /  0.8 °C 30.4 in /  1030.0 hPa ESE 2.4 mph /  3.9 km/h 2.4 mph /  3.9 km/h 52 % 0 in /  0.0 mm
11:55 50.4 °F /  10.2 °C 32.9 °F /  0.5 °C 30.4 in /  1030.0 hPa SE 2.4 mph /  3.9 km/h 2.4 mph /  3.9 km/h 51 % 0 in /  0.0 mm
12:00 50.7 °F /  10.4 °C 33.3 °F /  0.7 °C 30.4 in /  1030.0 hPa East 2.3 mph /  3.7 km/h 2.3 mph /  3.7 km/h 51 % 0 in /  0.0 mm
12:05 51.6 °F /  10.9 °C 34.2 °F /  1.2 °C 30.4 in /  1030.0 hPa NW 2.2 mph /  3.5 km/h 2.2 mph /  3.5 km/h 51 % 0 in /  0.0 mm
12:10 51.4 °F /  10.8 °C 34 °F /  1.1 °C 30.4 in /  1030.0 hPa NNE 1.2 mph /  1.9 km/h 1.2 mph /  1.9 km/h 51 % 0 in /  0.0 mm
12:15 51.1 °F /  10.6 °C 33.6 °F /  0.9 °C 30.4 in /  1030.0 hPa East 3.6 mph /  5.8 km/h 3.6 mph /  5.8 km/h 51 % 0 in /  0.0 mm
12:20 51.4 °F /  10.8 °C 34 °F /  1.1 °C 30.4 in /  1030.0 hPa NNE 2.3 mph /  3.7 km/h 2.3 mph /  3.7 km/h 51 % 0 in /  0.0 mm
12:25 51.8 °F /  11.0 °C 34.2 °F /  1.2 °C 30.4 in /  1030.0 hPa East 2.3 mph /  3.7 km/h 2.3 mph /  3.7 km/h 51 % 0 in /  0.0 mm
12:30 52.5 °F /  11.4 °C 34.9 °F /  1.6 °C 30.4 in /  1029.0 hPa ENE 2.2 mph /  3.5 km/h 2.2 mph /  3.5 km/h 51 % 0 in /  0.0 mm
12:40 52.5 °F /  11.4 °C 34.9 °F /  1.6 °C 30.4 in /  1029.0 hPa East 3.5 mph /  5.6 km/h 3.5 mph /  5.6 km/h 51 % 0 in /  0.0 mm
12:45 52.5 °F /  11.4 °C 34.3 °F /  1.3 °C 30.4 in /  1029.0 hPa ESE 3.5 mph /  5.6 km/h 3.5 mph /  5.6 km/h 50 % 0 in /  0.0 mm
12:50 53.1 °F /  11.7 °C 35.4 °F /  1.9 °C 30.4 in /  1029.0 hPa ESE 4.5 mph /  7.2 km/h 4.5 mph /  7.2 km/h 51 % 0 in /  0.0 mm
12:55 52.9 °F /  11.6 °C 34.7 °F /  1.5 °C 30.4 in /  1029.0 hPa ESE 3.5 mph /  5.6 km/h 3.5 mph /  5.6 km/h 50 % 0 in /  0.0 mm
13:00 53.1 °F /  11.7 °C 34.9 °F /  1.6 °C 30.4 in /  1028.0 hPa ENE 3.5 mph /  5.6 km/h 3.5 mph /  5.6 km/h 50 % 0 in /  0.0 mm
13:05 53.6 °F /  12.0 °C 35.4 °F /  1.9 °C 30.4 in /  1028.0 hPa East 3.5 mph /  5.6 km/h 3.5 mph /  5.6 km/h 50 % 0 in /  0.0 mm
13:10 54.1 °F /  12.3 °C 36.3 °F /  2.4 °C 30.4 in /  1028.0 hPa ESE 2.6 mph /  4.2 km/h 2.6 mph /  4.2 km/h 51 % 0 in /  0.0 mm
13:15 54.9 °F /  12.7 °C 36.7 °F /  2.6 °C 30.4 in /  1028.0 hPa South 2.4 mph /  3.9 km/h 2.4 mph /  3.9 km/h 50 % 0 in /  0.0 mm
13:20 55.8 °F /  13.2 °C 37.9 °F /  3.3 °C 30.4 in /  1028.0 hPa WSW 4.6 mph /  7.4 km/h 4.6 mph /  7.4 km/h 51 % 0 in /  0.0 mm
13:25 56.1 °F /  13.4 °C 38.1 °F /  3.4 °C 30.4 in /  1028.0 hPa SSE 2.3 mph /  3.7 km/h 2.3 mph /  3.7 km/h 51 % 0 in /  0.0 mm
13:30 55.9 °F /  13.3 °C 38.1 °F /  3.4 °C 30.4 in /  1028.0 hPa ENE 2.6 mph /  4.2 km/h 2.6 mph /  4.2 km/h 51 % 0 in /  0.0 mm
13:35 55.8 °F /  13.2 °C 37.4 °F /  3.0 °C 30.4 in /  1028.0 hPa SW 3.5 mph /  5.6 km/h 3.5 mph /  5.6 km/h 50 % 0 in /  0.0 mm
13:40 55.8 °F /  13.2 °C 37.9 °F /  3.3 °C 30.4 in /  1028.0 hPa SSW 4.6 mph /  7.4 km/h 4.6 mph /  7.4 km/h 51 % 0 in /  0.0 mm
13:45 55.8 °F /  13.2 °C 37.4 °F /  3.0 °C 30.3 in /  1027.0 hPa SSE 2.3 mph /  3.7 km/h 2.3 mph /  3.7 km/h 50 % 0 in /  0.0 mm
13:50 55.9 °F /  13.3 °C 37.6 °F /  3.1 °C 30.3 in /  1027.0 hPa SW 4.6 mph /  7.4 km/h 4.6 mph /  7.4 km/h 50 % 0 in /  0.0 mm
13:55 55.9 °F /  13.3 °C 37 °F /  2.8 °C 30.3 in /  1027.0 hPa South 5.8 mph /  9.3 km/h 5.8 mph /  9.3 km/h 49 % 0 in /  0.0 mm
14:00 56.3 °F /  13.5 °C 37.4 °F /  3.0 °C 30.3 in /  1027.0 hPa WSW 5.8 mph /  9.3 km/h 5.8 mph /  9.3 km/h 49 % 0 in /  0.0 mm
14:05 56.5 °F /  13.6 °C 37 °F /  2.8 °C 30.3 in /  1027.0 hPa SW 8.1 mph /  13.0 km/h 8.1 mph /  13.0 km/h 48 % 0 in /  0.0 mm
14:10 56.5 °F /  13.6 °C 36 °F /  2.2 °C 30.3 in /  1027.0 hPa SSW 4.6 mph /  7.4 km/h 4.6 mph /  7.4 km/h 46 % 0 in /  0.0 mm
14:15 56.3 °F /  13.5 °C 35.2 °F /  1.8 °C 30.4 in /  1028.0 hPa WSW 4.6 mph /  7.4 km/h 4.6 mph /  7.4 km/h 45 % 0 in /  0.0 mm
14:20 56.8 °F /  13.8 °C 35.8 °F /  2.1 °C 30.4 in /  1028.0 hPa WNW 8.1 mph /  13.0 km/h 8.1 mph /  13.0 km/h 45 % 0 in /  0.0 mm
14:21 57 °F /  13.9 °C 36.3 °F /  2.4 °C 30.4 in /  1028.0 hPa WSW 4.6 mph /  7.4 km/h 4.6 mph /  7.4 km/h 46 % 0 in /  0.0 mm
14:26 57.2 °F /  14.0 °C 36 °F /  2.2 °C 30.4 in /  1028.0 hPa SSW 2.3 mph /  3.7 km/h 2.3 mph /  3.7 km/h 45 % 0 in /  0.0 mm
14:31 57.4 °F /  14.1 °C 36.1 °F /  2.3 °C 30.4 in /  1028.0 hPa West 3.5 mph /  5.6 km/h 3.5 mph /  5.6 km/h 45 % 0 in /  0.0 mm
14:36 57.6 °F /  14.2 °C 35.8 °F /  2.1 °C 30.4 in /  1028.0 hPa WNW 3.5 mph /  5.6 km/h 3.5 mph /  5.6 km/h 44 % 0 in /  0.0 mm
14:41 57.6 °F /  14.2 °C 35.8 °F /  2.1 °C 30.4 in /  1028.0 hPa SSW 4.6 mph /  7.4 km/h 4.6 mph /  7.4 km/h 44 % 0 in /  0.0 mm
14:46 57.6 °F /  14.2 °C 35.2 °F /  1.8 °C 30.4 in /  1028.0 hPa WNW 4.6 mph /  7.4 km/h 4.6 mph /  7.4 km/h 43 % 0 in /  0.0 mm
14:51 56.7 °F /  13.7 °C 35.1 °F /  1.7 °C 30.4 in /  1028.0 hPa ENE 3.1 mph /  5.0 km/h 3.1 mph /  5.0 km/h 44 % 0 in /  0.0 mm
14:56 56.5 °F /  13.6 °C 35.4 °F /  1.9 °C 30.4 in /  1028.0 hPa West 3.5 mph /  5.6 km/h 3.5 mph /  5.6 km/h 45 % 0 in /  0.0 mm
15:01 56.5 °F /  13.6 °C 34.9 °F /  1.6 °C 30.4 in /  1028.0 hPa WSW 2.4 mph /  3.9 km/h 2.4 mph /  3.9 km/h 44 % 0 in /  0.0 mm
15:06 56.3 °F /  13.5 °C 34.5 °F /  1.4 °C 30.4 in /  1028.0 hPa NNE 2.3 mph /  3.7 km/h 2.3 mph /  3.7 km/h 44 % 0 in /  0.0 mm
15:11 56.8 °F /  13.8 °C 35.8 °F /  2.1 °C 30.4 in /  1028.0 hPa NNW 2.3 mph /  3.7 km/h 2.3 mph /  3.7 km/h 45 % 0 in /  0.0 mm
15:16 57.2 °F /  14.0 °C 35.4 °F /  1.9 °C 30.3 in /  1027.0 hPa WSW 4.6 mph /  7.4 km/h 4.6 mph /  7.4 km/h 44 % 0 in /  0.0 mm
15:21 57.7 °F /  14.3 °C 35.4 °F /  1.9 °C 30.3 in /  1027.0 hPa SW 4.9 mph /  7.9 km/h 4.9 mph /  7.9 km/h 43 % 0 in /  0.0 mm
15:26 57.4 °F /  14.1 °C 34.5 °F /  1.4 °C 30.3 in /  1027.0 hPa West 5.8 mph /  9.3 km/h 5.8 mph /  9.3 km/h 42 % 0 in /  0.0 mm
15:31 57.4 °F /  14.1 °C 34 °F /  1.1 °C 30.4 in /  1028.0 hPa West 8.1 mph /  13.0 km/h 8.1 mph /  13.0 km/h 41 % 0 in /  0.0 mm
15:36 56.8 °F /  13.8 °C 32.2 °F /  0.1 °C 30.4 in /  1028.0 hPa WNW 6.9 mph /  11.1 km/h 6.9 mph /  11.1 km/h 39 % 0 in /  0.0 mm
15:41 56.7 °F /  13.7 °C 32 °F /  0.0 °C 30.4 in /  1028.0 hPa West 5.8 mph /  9.3 km/h 5.8 mph /  9.3 km/h 39 % 0 in /  0.0 mm
15:46 56.8 °F /  13.8 °C 32.2 °F /  0.1 °C 30.4 in /  1028.0 hPa SW 5.8 mph /  9.3 km/h 6 mph /  9.7 km/h 39 % 0 in /  0.0 mm
15:51 56.5 °F /  13.6 °C 31.8 °F /  -0.1 °C 30.4 in /  1028.0 hPa West 8.1 mph /  13.0 km/h 8.1 mph /  13.0 km/h 39 % 0 in /  0.0 mm
15:56 56.3 °F /  13.5 °C 30.9 °F /  -0.6 °C 30.4 in /  1028.0 hPa West 10.4 mph /  16.7 km/h 10.4 mph /  16.7 km/h 38 % 0 in /  0.0 mm
16:01 56.3 °F /  13.5 °C 30.9 °F /  -0.6 °C 30.4 in /  1028.0 hPa SW 5.6 mph /  9.0 km/h 5.6 mph /  9.0 km/h 38 % 0 in /  0.0 mm
16:06 56.1 °F /  13.4 °C 30.7 °F /  -0.7 °C 30.4 in /  1028.0 hPa WSW 5.8 mph /  9.3 km/h 5.8 mph /  9.3 km/h 38 % 0 in /  0.0 mm
16:11 56.1 °F /  13.4 °C 30.7 °F /  -0.7 °C 30.4 in /  1028.0 hPa WNW 4.6 mph /  7.4 km/h 4.6 mph /  7.4 km/h 38 % 0 in /  0.0 mm
16:16 55.9 °F /  13.3 °C 31.3 °F /  -0.4 °C 30.4 in /  1028.0 hPa WNW 4.6 mph /  7.4 km/h 4.6 mph /  7.4 km/h 39 % 0 in /  0.0 mm
16:21 55.8 °F /  13.2 °C 31.3 °F /  -0.4 °C 30.4 in /  1028.0 hPa West 5.8 mph /  9.3 km/h 5.8 mph /  9.3 km/h 39 % 0 in /  0.0 mm
16:26 55.8 °F /  13.2 °C 31.3 °F /  -0.4 °C 30.4 in /  1028.0 hPa WSW 2.3 mph /  3.7 km/h 2.4 mph /  3.9 km/h 39 % 0 in /  0.0 mm
16:31 55.4 °F /  13.0 °C 30.7 °F /  -0.7 °C 30.4 in /  1029.0 hPa West 3.8 mph /  6.1 km/h 3.8 mph /  6.1 km/h 39 % 0 in /  0.0 mm
16:36 55.2 °F /  12.9 °C 30.7 °F /  -0.7 °C 30.4 in /  1029.0 hPa WSW 3.5 mph /  5.6 km/h 3.5 mph /  5.6 km/h 39 % 0 in /  0.0 mm
16:41 55.2 °F /  12.9 °C 30.7 °F /  -0.7 °C 30.4 in /  1029.0 hPa WSW 2.4 mph /  3.9 km/h 2.4 mph /  3.9 km/h 39 % 0 in /  0.0 mm
16:46 55 °F /  12.8 °C 30.6 °F /  -0.8 °C 30.4 in /  1028.0 hPa West 2.3 mph /  3.7 km/h 2.3 mph /  3.7 km/h 39 % 0 in /  0.0 mm
16:51 54.9 °F /  12.7 °C 30.4 °F /  -0.9 °C 30.4 in /  1028.0 hPa WSW 2.3 mph /  3.7 km/h 2.3 mph /  3.7 km/h 39 % 0 in /  0.0 mm
16:56 54.5 °F /  12.5 °C 30 °F /  -1.1 °C 30.4 in /  1028.0 hPa WSW 4.6 mph /  7.4 km/h 4.6 mph /  7.4 km/h 39 % 0 in /  0.0 mm
17:01 54.1 °F /  12.3 °C 29.7 °F /  -1.3 °C 30.4 in /  1028.0 hPa West 5.8 mph /  9.3 km/h 5.8 mph /  9.3 km/h 39 % 0 in /  0.0 mm
17:06 54 °F /  12.2 °C 29.5 °F /  -1.4 °C 30.4 in /  1028.0 hPa SW 5.8 mph /  9.3 km/h 5.8 mph /  9.3 km/h 39 % 0 in /  0.0 mm
17:11 53.2 °F /  11.8 °C 28.9 °F /  -1.7 °C 30.4 in /  1028.0 hPa WSW 3.5 mph /  5.6 km/h 3.5 mph /  5.6 km/h 39 % 0 in /  0.0 mm
17:16 52.9 °F /  11.6 °C 28.6 °F /  -1.9 °C 30.4 in /  1029.0 hPa WSW 3.5 mph /  5.6 km/h 3.5 mph /  5.6 km/h 39 % 0 in /  0.0 mm
17:21 52.3 °F /  11.3 °C 28 °F /  -2.2 °C 30.4 in /  1029.0 hPa SSW 3.8 mph /  6.1 km/h 3.8 mph /  6.1 km/h 39 % 0 in /  0.0 mm
17:26 52 °F /  11.1 °C 27.9 °F /  -2.3 °C 30.4 in /  1029.0 hPa WSW 2.4 mph /  3.9 km/h 2.4 mph /  3.9 km/h 39 % 0 in /  0.0 mm
17:31 51.8 °F /  11.0 °C 27.7 °F /  -2.4 °C 30.4 in /  1029.0 hPa WSW 1.2 mph /  1.9 km/h 1.2 mph /  1.9 km/h 39 % 0 in /  0.0 mm
17:36 51.6 °F /  10.9 °C 27.3 °F /  -2.6 °C 30.4 in /  1029.0 hPa NW 2.3 mph /  3.7 km/h 2.3 mph /  3.7 km/h 39 % 0 in /  0.0 mm
17:41 51.4 °F /  10.8 °C 27.3 °F /  -2.6 °C 30.4 in /  1029.0 hPa ENE 1.4 mph /  2.3 km/h 1.4 mph /  2.3 km/h 39 % 0 in /  0.0 mm
17:46 51.3 °F /  10.7 °C 27.1 °F /  -2.7 °C 30.4 in /  1029.0 hPa WSW 2.3 mph /  3.7 km/h 2.3 mph /  3.7 km/h 39 % 0 in /  0.0 mm
17:51 51.1 °F /  10.6 °C 27 °F /  -2.8 °C 30.4 in /  1029.0 hPa WSW 2.6 mph /  4.2 km/h 2.6 mph /  4.2 km/h 39 % 0 in /  0.0 mm
17:56 51.1 °F /  10.6 °C 27 °F /  -2.8 °C 30.4 in /  1029.0 hPa WSW 3.5 mph /  5.6 km/h 3.5 mph /  5.6 km/h 39 % 0 in /  0.0 mm
18:01 51.1 °F /  10.6 °C 27 °F /  -2.8 °C 30.4 in /  1029.0 hPa SW 1.2 mph /  1.9 km/h   39 % 0 in /  0.0 mm
18:06 50.7 °F /  10.4 °C 26.6 °F /  -3.0 °C 30.4 in /  1029.0 hPa East 1.2 mph /  1.9 km/h 1.4 mph /  2.3 km/h 39 % 0 in /  0.0 mm
18:11 50.5 °F /  10.3 °C 26.4 °F /  -3.1 °C 30.4 in /  1029.0 hPa ENE 1.6 mph /  2.6 km/h   39 % 0 in /  0.0 mm
18:16 50.2 °F /  10.1 °C 26.1 °F /  -3.3 °C 30.4 in /  1030.0 hPa ENE 2 mph /  3.2 km/h 2 mph /  3.2 km/h 39 % 0 in /  0.0 mm
18:21 50 °F /  10.0 °C 26.1 °F /  -3.3 °C 30.4 in /  1030.0 hPa NNE 2.3 mph /  3.7 km/h 2.3 mph /  3.7 km/h 39 % 0 in /  0.0 mm
18:26 49.6 °F /  9.8 °C 25.7 °F /  -3.5 °C 30.4 in /  1030.0 hPa NNE 1.2 mph /  1.9 km/h   39 % 0 in /  0.0 mm
18:31 49.3 °F /  9.6 °C 25.3 °F /  -3.7 °C 30.4 in /  1029.0 hPa Calm     39 % 0 in /  0.0 mm
18:36 48.7 °F /  9.3 °C 25 °F /  -3.9 °C 30.4 in /  1029.0 hPa NE 1.2 mph /  1.9 km/h 1.2 mph /  1.9 km/h 39 % 0 in /  0.0 mm
18:41 48.7 °F /  9.3 °C 25.5 °F /  -3.6 °C 30.4 in /  1029.0 hPa WNW 2.3 mph /  3.7 km/h 2.3 mph /  3.7 km/h 40 % 0 in /  0.0 mm
18:45 39.2 °F /  4.0 °C 23 °F /  -5.0 °C 30.4 in /  1030.0 hPa SW 1 mph /  1.6 km/h 2 mph /  3.2 km/h 52 % 0 in /  0.0 mm
18:46 48.9 °F /  9.4 °C 25.5 °F /  -3.6 °C 30.4 in /  1029.0 hPa West 1.2 mph /  1.9 km/h 1.2 mph /  1.9 km/h 40 % 0 in /  0.0 mm
18:51 48.9 °F /  9.4 °C 25.5 °F /  -3.6 °C 30.4 in /  1029.0 hPa SW 2.3 mph /  3.7 km/h 2.3 mph /  3.7 km/h 40 % 0 in /  0.0 mm
18:55 39.6 °F /  4.2 °C 23.4 °F /  -4.8 °C 30.4 in /  1029.0 hPa North 1 mph /  1.6 km/h 2 mph /  3.2 km/h 52 % 0 in /  0.0 mm
18:56 48.9 °F /  9.4 °C 25.5 °F /  -3.6 °C 30.4 in /  1029.0 hPa West 2.3 mph /  3.7 km/h 2.3 mph /  3.7 km/h 40 % 0 in /  0.0 mm
19:01 48.7 °F /  9.3 °C 25.5 °F /  -3.6 °C 30.4 in /  1029.0 hPa West 1.2 mph /  1.9 km/h   40 % 0 in /  0.0 mm
19:05 39.6 °F /  4.2 °C 23.4 °F /  -4.8 °C 30.4 in /  1029.0 hPa NNW 1 mph /  1.6 km/h 1 mph /  1.6 km/h 52 % 0 in /  0.0 mm
19:06 48.7 °F /  9.3 °C 25.5 °F /  -3.6 °C 30.4 in /  1029.0 hPa Calm     40 % 0 in /  0.0 mm
19:11 48.6 °F /  9.2 °C 25.3 °F /  -3.7 °C 30.4 in /  1029.0 hPa West 1.4 mph /  2.3 km/h 1.4 mph /  2.3 km/h 40 % 0 in /  0.0 mm
19:15 39.7 °F /  4.3 °C 24.1 °F /  -4.4 °C 30.4 in /  1029.0 hPa Calm   1 mph /  1.6 km/h 53 % 0 in /  0.0 mm
19:16 48.6 °F /  9.2 °C 25.3 °F /  -3.7 °C 30.4 in /  1029.0 hPa West 2 mph /  3.2 km/h   40 % 0 in /  0.0 mm
19:21 48.6 °F /  9.2 °C 25.3 °F /  -3.7 °C 30.4 in /  1029.0 hPa WSW 1.6 mph /  2.6 km/h 1.6 mph /  2.6 km/h 40 % 0 in /  0.0 mm
19:25 39 °F /  3.9 °C 22.8 °F /  -5.1 °C 30.4 in /  1029.0 hPa West 2 mph /  3.2 km/h 3 mph /  4.8 km/h 52 % 0 in /  0.0 mm
19:26 48.6 °F /  9.2 °C 25.3 °F /  -3.7 °C 30.4 in /  1029.0 hPa WNW 2.3 mph /  3.7 km/h 2.3 mph /  3.7 km/h 40 % 0 in /  0.0 mm
19:31 48.7 °F /  9.3 °C 25.5 °F /  -3.6 °C 30.4 in /  1029.0 hPa WSW 1.2 mph /  1.9 km/h 1.2 mph /  1.9 km/h 40 % 0 in /  0.0 mm
19:35 38.8 °F /  3.8 °C 23.2 °F /  -4.9 °C 30.4 in /  1029.0 hPa Calm   2 mph /  3.2 km/h 53 % 0 in /  0.0 mm
19:36 48.7 °F /  9.3 °C 26.1 °F /  -3.3 °C 30.4 in /  1029.0 hPa WNW 1.2 mph /  1.9 km/h 1.2 mph /  1.9 km/h 41 % 0 in /  0.0 mm
19:41 48.7 °F /  9.3 °C 26.1 °F /  -3.3 °C 30.4 in /  1029.0 hPa ENE 2.4 mph /  3.9 km/h 2.4 mph /  3.9 km/h 41 % 0 in /  0.0 mm
19:45 39.4 °F /  4.1 °C 23.7 °F /  -4.6 °C 30.4 in /  1029.0 hPa Calm   2 mph /  3.2 km/h 53 % 0 in /  0.0 mm
19:46 47.5 °F /  8.6 °C 25 °F /  -3.9 °C 30.4 in /  1029.0 hPa ENE 3.5 mph /  5.6 km/h 3.5 mph /  5.6 km/h 41 % 0 in /  0.0 mm
19:51 47.3 °F /  8.5 °C 24.8 °F /  -4.0 °C 30.4 in /  1029.0 hPa ESE 1.2 mph /  1.9 km/h   41 % 0 in /  0.0 mm
19:55 39.6 °F /  4.2 °C 23.7 °F /  -4.6 °C 30.4 in /  1029.0 hPa Calm     53 % 0 in /  0.0 mm
19:56 46.9 °F /  8.3 °C 24.4 °F /  -4.2 °C 30.4 in /  1029.0 hPa Calm     41 % 0 in /  0.0 mm
20:01 46.8 °F /  8.2 °C 24.3 °F /  -4.3 °C 30.4 in /  1029.0 hPa WNW 2.3 mph /  3.7 km/h 2.3 mph /  3.7 km/h 41 % 0 in /  0.0 mm
20:05 39.7 °F /  4.3 °C 24.1 °F /  -4.4 °C 30.4 in /  1029.0 hPa Calm   1 mph /  1.6 km/h 53 % 0 in /  0.0 mm
20:06 46.8 °F /  8.2 °C 24.3 °F /  -4.3 °C 30.4 in /  1029.0 hPa WNW 1.4 mph /  2.3 km/h 1.4 mph /  2.3 km/h 41 % 0 in /  0.0 mm
20:11 46.6 °F /  8.1 °C 24.1 °F /  -4.4 °C 30.4 in /  1029.0 hPa WNW 2.6 mph /  4.2 km/h 2.6 mph /  4.2 km/h 41 % 0 in /  0.0 mm
20:15 39.9 °F /  4.4 °C 24.6 °F /  -4.1 °C 30.4 in /  1029.0 hPa NNE 2 mph /  3.2 km/h 2 mph /  3.2 km/h 54 % 0 in /  0.0 mm
20:16 46.4 °F /  8.0 °C 23.9 °F /  -4.5 °C 30.4 in /  1028.0 hPa NW 2 mph /  3.2 km/h 2 mph /  3.2 km/h 41 % 0 in /  0.0 mm
20:21 46.4 °F /  8.0 °C 23.9 °F /  -4.5 °C 30.4 in /  1028.0 hPa NNE 2.3 mph /  3.7 km/h 2.3 mph /  3.7 km/h 41 % 0 in /  0.0 mm
20:25 39.6 °F /  4.2 °C 24.3 °F /  -4.3 °C 30.4 in /  1029.0 hPa Calm   1 mph /  1.6 km/h 54 % 0 in /  0.0 mm
20:26 46.4 °F /  8.0 °C 23.9 °F /  -4.5 °C 30.4 in /  1028.0 hPa WNW 1.2 mph /  1.9 km/h 1.2 mph /  1.9 km/h 41 % 0 in /  0.0 mm
20:31 46.6 °F /  8.1 °C 24.1 °F /  -4.4 °C 30.4 in /  1028.0 hPa WNW 1.2 mph /  1.9 km/h 1.4 mph /  2.3 km/h 41 % 0 in /  0.0 mm
20:35 39.7 °F /  4.3 °C 24.4 °F /  -4.2 °C 30.4 in /  1030.0 hPa Calm   1 mph /  1.6 km/h 54 % 0 in /  0.0 mm
20:36 46.9 °F /  8.3 °C 25 °F /  -3.9 °C 30.4 in /  1028.0 hPa NW 1.4 mph /  2.3 km/h 1.4 mph /  2.3 km/h 42 % 0 in /  0.0 mm
20:41 47.3 °F /  8.5 °C 25.3 °F /  -3.7 °C 30.4 in /  1028.0 hPa North 1.2 mph /  1.9 km/h   42 % 0 in /  0.0 mm
20:45 39.9 °F /  4.4 °C 24.6 °F /  -4.1 °C 30.4 in /  1030.0 hPa WNW 1 mph /  1.6 km/h 1 mph /  1.6 km/h 54 % 0 in /  0.0 mm
20:46 46.8 °F /  8.2 °C 25 °F /  -3.9 °C 30.4 in /  1028.0 hPa WNW 1.2 mph /  1.9 km/h 1.2 mph /  1.9 km/h 42 % 0 in /  0.0 mm
20:51 46.2 °F /  7.9 °C 24.4 °F /  -4.2 °C 30.4 in /  1028.0 hPa NNE 2.3 mph /  3.7 km/h 2.3 mph /  3.7 km/h 42 % 0 in /  0.0 mm
20:55 39.9 °F /  4.4 °C 24.6 °F /  -4.1 °C 30.4 in /  1029.0 hPa NNW 1 mph /  1.6 km/h 2 mph /  3.2 km/h 54 % 0 in /  0.0 mm
20:56 46 °F /  7.8 °C 24.3 °F /  -4.3 °C 30.4 in /  1028.0 hPa ENE 2.3 mph /  3.7 km/h 2.3 mph /  3.7 km/h 42 % 0 in /  0.0 mm
21:01 45.9 °F /  7.7 °C 24.1 °F /  -4.4 °C 30.4 in /  1029.0 hPa NNE 3.5 mph /  5.6 km/h 3.5 mph /  5.6 km/h 42 % 0 in /  0.0 mm
21:05 39.6 °F /  4.2 °C 24.3 °F /  -4.3 °C 30.4 in /  1029.0 hPa Calm   1 mph /  1.6 km/h 54 % 0 in /  0.0 mm
21:13 45 °F /  7.2 °C 23.7 °F /  -4.6 °C 30.4 in /  1029.0 hPa East 2.3 mph /  3.7 km/h 2.3 mph /  3.7 km/h 43 % 0 in /  0.0 mm
21:15 39.6 °F /  4.2 °C 24.3 °F /  -4.3 °C 30.4 in /  1029.0 hPa North 1 mph /  1.6 km/h 2 mph /  3.2 km/h 54 % 0 in /  0.0 mm
21:18 44.1 °F /  6.7 °C 23 °F /  -5.0 °C 30.4 in /  1029.0 hPa NE 2.3 mph /  3.7 km/h 2.4 mph /  3.9 km/h 43 % 0 in /  0.0 mm
21:23 43.7 °F /  6.5 °C 22.6 °F /  -5.2 °C 30.4 in /  1029.0 hPa NE 2.3 mph /  3.7 km/h 2.3 mph /  3.7 km/h 43 % 0 in /  0.0 mm
21:25 40.5 °F /  4.7 °C 25.2 °F /  -3.8 °C 30.4 in /  1029.0 hPa NE 2 mph /  3.2 km/h 3 mph /  4.8 km/h 54 % 0 in /  0.0 mm
21:28 43.3 °F /  6.3 °C 22.8 °F /  -5.1 °C 30.4 in /  1029.0 hPa NNE 1.2 mph /  1.9 km/h 1.2 mph /  1.9 km/h 44 % 0 in /  0.0 mm
21:33 43.2 °F /  6.2 °C 22.6 °F /  -5.2 °C 30.4 in /  1029.0 hPa WNW 2.3 mph /  3.7 km/h   44 % 0 in /  0.0 mm
21:35 40.5 °F /  4.7 °C 25.2 °F /  -3.8 °C 30.4 in /  1029.0 hPa NE 2 mph /  3.2 km/h 3 mph /  4.8 km/h 54 % 0 in /  0.0 mm
21:38 43.2 °F /  6.2 °C 22.6 °F /  -5.2 °C 30.4 in /  1029.0 hPa NNE 2.3 mph /  3.7 km/h 2.3 mph /  3.7 km/h 44 % 0 in /  0.0 mm
21:43 43.2 °F /  6.2 °C 22.6 °F /  -5.2 °C 30.4 in /  1029.0 hPa NNE 0.9 mph /  1.4 km/h   44 % 0 in /  0.0 mm
21:45 40.1 °F /  4.5 °C 24.8 °F /  -4.0 °C 30.4 in /  1029.0 hPa NE 3 mph /  4.8 km/h 4 mph /  6.4 km/h 54 % 0 in /  0.0 mm
21:48 43.2 °F /  6.2 °C 23.2 °F /  -4.9 °C 30.4 in /  1029.0 hPa North 2.3 mph /  3.7 km/h 2.3 mph /  3.7 km/h 45 % 0 in /  0.0 mm
21:53 43.2 °F /  6.2 °C 22.6 °F /  -5.2 °C 30.4 in /  1029.0 hPa NW 2.3 mph /  3.7 km/h 2.3 mph /  3.7 km/h 44 % 0 in /  0.0 mm
21:55 40.3 °F /  4.6 °C 25.3 °F /  -3.7 °C 30.4 in /  1029.0 hPa NE 2 mph /  3.2 km/h 4 mph /  6.4 km/h 55 % 0 in /  0.0 mm
21:58 43.2 °F /  6.2 °C 23.2 °F /  -4.9 °C 30.4 in /  1029.0 hPa WSW 1.2 mph /  1.9 km/h   45 % 0 in /  0.0 mm
22:03 42.8 °F /  6.0 °C 22.8 °F /  -5.1 °C 30.4 in /  1029.0 hPa Calm     45 % 0 in /  0.0 mm
22:05 40.1 °F /  4.5 °C 25.2 °F /  -3.8 °C 30.4 in /  1029.0 hPa NNE 1 mph /  1.6 km/h 4 mph /  6.4 km/h 55 % 0 in /  0.0 mm
22:08 42.4 °F /  5.8 °C 23.2 °F /  -4.9 °C 30.4 in /  1029.0 hPa SSE 2.3 mph /  3.7 km/h 2.3 mph /  3.7 km/h 46 % 0 in /  0.0 mm
22:13 42.3 °F /  5.7 °C 22.8 °F /  -5.1 °C 30.4 in /  1029.0 hPa ENE 1.2 mph /  1.9 km/h   46 % 0 in /  0.0 mm
22:15 40.1 °F /  4.5 °C 25.2 °F /  -3.8 °C 30.4 in /  1029.0 hPa NNE 2 mph /  3.2 km/h 2 mph /  3.2 km/h 55 % 0 in /  0.0 mm
22:18 41.4 °F /  5.2 °C 22.1 °F /  -5.5 °C 30.4 in /  1030.0 hPa NNE 2.3 mph /  3.7 km/h 2.3 mph /  3.7 km/h 46 % 0 in /  0.0 mm
22:23 41.2 °F /  5.1 °C 21.9 °F /  -5.6 °C 30.4 in /  1030.0 hPa SW 2.6 mph /  4.2 km/h 2.6 mph /  4.2 km/h 46 % 0 in /  0.0 mm
22:25 39.9 °F /  4.4 °C 25 °F /  -3.9 °C 30.4 in /  1029.0 hPa Calm   2 mph /  3.2 km/h 55 % 0 in /  0.0 mm
22:28 40.6 °F /  4.8 °C 21.4 °F /  -5.9 °C 30.4 in /  1030.0 hPa WSW 2.3 mph /  3.7 km/h 2.3 mph /  3.7 km/h 46 % 0 in /  0.0 mm
22:33 40.6 °F /  4.8 °C 21.4 °F /  -5.9 °C 30.4 in /  1030.0 hPa West 2.4 mph /  3.9 km/h 2.4 mph /  3.9 km/h 46 % 0 in /  0.0 mm
22:35 39.7 °F /  4.3 °C 25 °F /  -3.9 °C 30.4 in /  1029.0 hPa NNE 1 mph /  1.6 km/h 2 mph /  3.2 km/h 55 % 0 in /  0.0 mm
22:38 40.6 °F /  4.8 °C 21.9 °F /  -5.6 °C 30.4 in /  1030.0 hPa SSW 1.2 mph /  1.9 km/h 1.2 mph /  1.9 km/h 47 % 0 in /  0.0 mm
22:43 41 °F /  5.0 °C 22.3 °F /  -5.4 °C 30.4 in /  1030.0 hPa WNW 2.3 mph /  3.7 km/h 2.3 mph /  3.7 km/h 47 % 0 in /  0.0 mm
22:45 40.1 °F /  4.5 °C 25.2 °F /  -3.8 °C 30.4 in /  1029.0 hPa North 2 mph /  3.2 km/h 3 mph /  4.8 km/h 55 % 0 in /  0.0 mm
22:48 41 °F /  5.0 °C 22.3 °F /  -5.4 °C 30.4 in /  1030.0 hPa Calm     47 % 0 in /  0.0 mm
22:53 41.2 °F /  5.1 °C 22.5 °F /  -5.3 °C 30.4 in /  1030.0 hPa WSW 2.3 mph /  3.7 km/h 2.3 mph /  3.7 km/h 47 % 0 in /  0.0 mm
22:55 40.1 °F /  4.5 °C 25.2 °F /  -3.8 °C 30.4 in /  1029.0 hPa NNE 2 mph /  3.2 km/h 4 mph /  6.4 km/h 55 % 0 in /  0.0 mm
22:58 41.2 °F /  5.1 °C 23 °F /  -5.0 °C 30.4 in /  1030.0 hPa NNE 1.2 mph /  1.9 km/h   48 % 0 in /  0.0 mm
23:03 41.4 °F /  5.2 °C 23.2 °F /  -4.9 °C 30.4 in /  1030.0 hPa NNE 2.3 mph /  3.7 km/h 2.3 mph /  3.7 km/h 48 % 0 in /  0.0 mm
23:05 39.6 °F /  4.2 °C 24.6 °F /  -4.1 °C 30.4 in /  1029.0 hPa NE 3 mph /  4.8 km/h 3 mph /  4.8 km/h 55 % 0 in /  0.0 mm
23:08 41.9 °F /  5.5 °C 23.5 °F /  -4.7 °C 30.4 in /  1030.0 hPa SW 2.4 mph /  3.9 km/h 2.4 mph /  3.9 km/h 48 % 0 in /  0.0 mm
23:13 40.8 °F /  4.9 °C 22.6 °F /  -5.2 °C 30.4 in /  1030.0 hPa ENE 1.6 mph /  2.6 km/h   48 % 0 in /  0.0 mm
23:15 38.8 °F /  3.8 °C 24.1 °F /  -4.4 °C 30.4 in /  1029.0 hPa NNE 1 mph /  1.6 km/h 3 mph /  4.8 km/h 55 % 0 in /  0.0 mm
23:18 40.6 °F /  4.8 °C 22.8 °F /  -5.1 °C 30.4 in /  1030.0 hPa ENE 1.2 mph /  1.9 km/h   49 % 0 in /  0.0 mm
23:20 40.6 °F /  4.8 °C 22.8 °F /  -5.1 °C 30.4 in /  1030.0 hPa Calm     49 % 0 in /  0.0 mm
23:25 40.6 °F /  4.8 °C 22.8 °F /  -5.1 °C 30.4 in /  1030.0 hPa Calm     49 % 0 in /  0.0 mm
23:30 40.6 °F /  4.8 °C 23.4 °F /  -4.8 °C 30.4 in /  1030.0 hPa Calm     50 % 0 in /  0.0 mm
23:35 40.6 °F /  4.8 °C 23.4 °F /  -4.8 °C 30.4 in /  1030.0 hPa Calm     50 % 0 in /  0.0 mm
23:40 41 °F /  5.0 °C 23.7 °F /  -4.6 °C 30.4 in /  1030.0 hPa WNW 1.2 mph /  1.9 km/h 1.2 mph /  1.9 km/h 50 % 0 in /  0.0 mm
23:45 40.8 °F /  4.9 °C 23.5 °F /  -4.7 °C 30.4 in /  1030.0 hPa East 1.4 mph /  2.3 km/h 1.4 mph /  2.3 km/h 50 % 0 in /  0.0 mm
23:50 40.6 °F /  4.8 °C 23.4 °F /  -4.8 °C 30.4 in /  1030.0 hPa Calm     50 % 0 in /  0.0 mm
23:55 40.1 °F /  4.5 °C 22.8 °F /  -5.1 °C 30.4 in /  1030.0 hPa Calm     50 % 0 in /  0.0 mm
Meteo Sesrovires
Elogis d' Weather Underground - 3.5 mb

Guio original per  Jim McMurry - jmcmurry@mwt.net Adaptat per a la plantilla per  Wim van der Kuil - Leuven-Template.eu

Trobareu la nostra informacio del temps tambe a:

Weather Underground

AWEKAS